Time;durP1;ratioP1;P1;durP2;ratioP2;P2;SDS_P1;SDS_P2;PMS_P1;PMS_P2;Temp;Humidity;BMP_temperature;BMP_pressure;BME280_temperature;BME280_humidity;BME280_pressure;Samples;Min_cycle;Max_cycle;Signal;HPM_P1;HPM_P2
2022/05/14 00:01:02;;;;;;;4.93;2.58;;;;;;;;;;5093581;28;20035;-74
2022/05/14 00:03:30;;;;;;;6.35;2.50;;;;;;;;;;5109089;28;20046;-74
2022/05/14 00:05:58;;;;;;;4.55;2.17;;;;;;;;;;5107139;28;20080;-74
2022/05/14 00:08:25;;;;;;;4.05;2.20;;;;;;;;;;5107241;28;20502;-74
2022/05/14 00:13:38;;;;;;;3.85;1.98;;;;;;;;;;5110516;28;20093;-74
2022/05/14 00:16:05;;;;;;;8.75;2.45;;;;;;;;;;5112190;28;20076;-73
2022/05/14 00:18:32;;;;;;;6.57;2.40;;;;;;;;;;5112183;28;20023;-74
2022/05/14 00:20:59;;;;;;;5.20;2.08;;;;;;;;;;5104756;28;20497;-74
2022/05/14 00:23:26;;;;;;;6.30;2.10;;;;;;;;;;5091898;28;20131;-74
2022/05/14 00:25:53;;;;;;;4.57;2.13;;;;;;;;;;5088379;28;20031;-74
2022/05/14 00:28:20;;;;;;;8.02;2.55;;;;;;;;;;5087337;28;20048;-74
2022/05/14 00:30:47;;;;;;;8.93;2.45;;;;;;;;;;5086438;28;20047;-73
2022/05/14 00:33:14;;;;;;;5.47;1.80;;;;;;;;;;5086544;28;20073;-74
2022/05/14 00:35:41;;;;;;;4.10;1.67;;;;;;;;;;5090023;28;20024;-73
2022/05/14 00:38:11;;;;;;;4.45;2.13;;;;;;;;;;5100706;28;20023;-74
2022/05/14 00:40:39;;;;;;;4.03;2.13;;;;;;;;;;5115675;28;20023;-74
2022/05/14 00:43:06;;;;;;;8.13;2.40;;;;;;;;;;5115453;28;20055;-74
2022/05/14 00:45:34;;;;;;;4.50;2.78;;;;;;;;;;5115589;28;20031;-74
2022/05/14 00:48:01;;;;;;;8.38;3.25;;;;;;;;;;5107764;28;20590;-74
2022/05/14 00:50:35;;;;;;;9.93;2.60;;;;;;;;;;5089675;28;20024;-74
2022/05/14 00:53:11;;;;;;;7.97;2.90;;;;;;;;;;5089735;28;20040;-75
2022/05/14 00:55:38;;;;;;;5.00;3.10;;;;;;;;;;5089750;28;20120;-74
2022/05/14 00:58:05;;;;;;;6.00;3.28;;;;;;;;;;5096753;28;20144;-74
2022/05/14 01:00:32;;;;;;;6.28;3.15;;;;;;;;;;5115375;28;20031;-74
2022/05/14 01:02:59;;;;;;;6.15;3.50;;;;;;;;;;5115160;28;20027;-74
2022/05/14 01:05:26;;;;;;;5.87;3.93;;;;;;;;;;5115255;28;20031;-74
2022/05/14 01:07:55;;;;;;;6.00;3.50;;;;;;;;;;5111821;28;20466;-74
2022/05/14 01:10:24;;;;;;;5.60;3.80;;;;;;;;;;5091592;28;20028;-74
2022/05/14 01:12:53;;;;;;;10.43;4.07;;;;;;;;;;5089277;28;20166;-74
2022/05/14 01:15:22;;;;;;;7.80;3.63;;;;;;;;;;5089402;28;20024;-74
2022/05/14 01:17:48;;;;;;;11.57;4.30;;;;;;;;;;5105107;28;20020;-73
2022/05/14 01:20:16;;;;;;;5.97;3.80;;;;;;;;;;5112397;28;20019;-74
2022/05/14 01:22:59;;;;;;;9.57;3.83;;;;;;;;;;5114710;28;20027;-74
2022/05/14 01:28:11;;;;;;;6.57;4.17;;;;;;;;;;5095256;28;20128;-73
2022/05/14 01:30:45;;;;;;;10.17;4.10;;;;;;;;;;5094284;28;20099;-73
2022/05/14 01:33:12;;;;;;;6.13;3.80;;;;;;;;;;5090038;28;20115;-73
2022/05/14 01:35:40;;;;;;;4.63;3.30;;;;;;;;;;5089028;28;20543;-74
2022/05/14 01:38:07;;;;;;;10.20;3.70;;;;;;;;;;5106821;28;20023;-75
2022/05/14 01:40:33;;;;;;;8.97;4.43;;;;;;;;;;5109304;28;20031;-74
2022/05/14 01:43:00;;;;;;;8.53;3.37;;;;;;;;;;5112486;28;20055;-75
2022/05/14 01:45:27;;;;;;;8.30;3.33;;;;;;;;;;5114423;28;20486;-74
2022/05/14 01:47:54;;;;;;;6.40;4.10;;;;;;;;;;5097576;28;20028;-74
2022/05/14 01:50:22;;;;;;;9.07;3.70;;;;;;;;;;5094006;28;20028;-74
2022/05/14 01:52:48;;;;;;;8.83;4.70;;;;;;;;;;5093655;28;20036;-74
2022/05/14 01:55:15;;;;;;;9.93;4.83;;;;;;;;;;5090051;28;20049;-74
2022/05/14 01:57:42;;;;;;;14.67;5.37;;;;;;;;;;5102509;28;20051;-74
2022/05/14 02:00:10;;;;;;;10.10;4.23;;;;;;;;;;5108843;28;20027;-75
2022/05/14 02:02:37;;;;;;;9.03;4.70;;;;;;;;;;5108889;28;20027;-73
2022/05/14 02:05:03;;;;;;;8.13;5.10;;;;;;;;;;5111504;28;20072;-74
2022/05/14 02:07:30;;;;;;;10.10;5.40;;;;;;;;;;5101293;28;20024;-74
2022/05/14 02:09:57;;;;;;;8.93;4.93;;;;;;;;;;5093624;28;20024;-74
2022/05/14 02:12:23;;;;;;;14.33;4.63;;;;;;;;;;5093187;28;20479;-74
2022/05/14 02:14:50;;;;;;;11.50;4.67;;;;;;;;;;5093289;28;20436;-74
2022/05/14 02:17:17;;;;;;;11.20;4.90;;;;;;;;;;5099085;28;20036;-74
2022/05/14 02:19:44;;;;;;;12.07;5.17;;;;;;;;;;5108244;28;20478;-74
2022/05/14 02:22:10;;;;;;;10.63;4.73;;;;;;;;;;5108004;28;20102;-74
2022/05/14 02:24:38;;;;;;;8.57;4.50;;;;;;;;;;5107994;28;20068;-74
2022/05/14 02:27:05;;;;;;;14.77;5.00;;;;;;;;;;5101892;28;20020;-74
2022/05/14 02:29:50;;;;;;;9.03;4.43;;;;;;;;;;5104137;28;20482;-74
2022/05/14 02:32:20;;;;;;;9.73;4.90;;;;;;;;;;5113394;28;20031;-74
2022/05/14 02:34:47;;;;;;;11.30;5.03;;;;;;;;;;5113296;28;20474;-73
2022/05/14 02:37:14;;;;;;;9.67;4.10;;;;;;;;;;5113289;28;20020;-74
2022/05/14 02:39:41;;;;;;;16.93;4.73;;;;;;;;;;5097891;28;20359;-74
2022/05/14 02:42:08;;;;;;;7.07;3.53;;;;;;;;;;5087363;28;20028;-74
2022/05/14 02:44:34;;;;;;;7.03;3.30;;;;;;;;;;5098925;28;20027;-74
2022/05/14 02:47:01;;;;;;;5.40;3.30;;;;;;;;;;5107823;28;20024;-74
2022/05/14 02:49:28;;;;;;;7.83;3.57;;;;;;;;;;5109957;28;20020;-74
2022/05/14 02:51:54;;;;;;;6.13;3.90;;;;;;;;;;5113075;28;20031;-74
2022/05/14 02:54:21;;;;;;;5.53;3.30;;;;;;;;;;5103509;28;20410;-74
2022/05/14 02:56:48;;;;;;;10.83;4.27;;;;;;;;;;5092683;28;20382;-74
2022/05/14 02:59:15;;;;;;;9.30;3.50;;;;;;;;;;5091671;28;20031;-74
2022/05/14 03:01:48;;;;;;;7.33;3.27;;;;;;;;;;5090172;28;20106;-74
2022/05/14 03:04:18;;;;;;;7.93;3.97;;;;;;;;;;5094990;28;20031;-74
2022/05/14 03:06:45;;;;;;;11.43;4.00;;;;;;;;;;5107246;28;20097;-75
2022/05/14 03:09:12;;;;;;;10.27;4.83;;;;;;;;;;5107618;28;20028;-74
2022/05/14 03:11:39;;;;;;;8.20;3.20;;;;;;;;;;5109226;28;20347;-74
2022/05/14 03:14:06;;;;;;;9.60;2.80;;;;;;;;;;5105948;28;20043;-74
2022/05/14 03:16:32;;;;;;;6.97;3.90;;;;;;;;;;5092476;28;20020;-74
2022/05/14 03:18:59;;;;;;;8.00;3.67;;;;;;;;;;5092510;28;20641;-73
2022/05/14 03:21:26;;;;;;;7.83;3.53;;;;;;;;;;5092341;28;20471;-74
2022/05/14 03:23:52;;;;;;;6.13;3.37;;;;;;;;;;5094226;28;20039;-74
2022/05/14 03:26:19;;;;;;;17.47;4.37;;;;;;;;;;5107503;28;20027;-74
2022/05/14 03:28:46;;;;;;;5.77;3.50;;;;;;;;;;5107267;28;20059;-74
2022/05/14 03:31:13;;;;;;;7.40;3.10;;;;;;;;;;5107372;28;20557;-74
2022/05/14 03:33:40;;;;;;;7.37;3.00;;;;;;;;;;5091499;28;20042;-74
2022/05/14 03:36:08;;;;;;;5.77;3.10;;;;;;;;;;5092205;28;20081;-74
2022/05/14 03:38:35;;;;;;;6.23;3.43;;;;;;;;;;5092259;28;20020;-74
2022/05/14 03:41:03;;;;;;;4.67;2.60;;;;;;;;;;5092008;28;20046;-74
2022/05/14 03:43:30;;;;;;;6.07;3.83;;;;;;;;;;5106488;28;20080;-74
2022/05/14 03:45:57;;;;;;;5.23;3.60;;;;;;;;;;5110940;28;20054;-74
2022/05/14 03:48:24;;;;;;;5.70;3.10;;;;;;;;;;5106938;28;20028;-74
2022/05/14 03:50:51;;;;;;;7.00;3.57;;;;;;;;;;5102612;28;20032;-74
2022/05/14 03:53:17;;;;;;;8.00;3.87;;;;;;;;;;5086626;28;20028;-74
2022/05/14 03:55:44;;;;;;;6.27;3.60;;;;;;;;;;5087457;28;20024;-74
2022/05/14 03:58:11;;;;;;;8.83;4.00;;;;;;;;;;5091820;28;20027;-74
2022/05/14 04:00:38;;;;;;;4.23;3.10;;;;;;;;;;5096271;28;20114;-74
2022/05/14 04:03:05;;;;;;;6.77;3.50;;;;;;;;;;5112239;28;20027;-73
2022/05/14 04:05:32;;;;;;;5.97;3.47;;;;;;;;;;5112179;28;20051;-74
2022/05/14 04:07:58;;;;;;;5.00;3.20;;;;;;;;;;5111310;28;20024;-74
2022/05/14 04:10:25;;;;;;;8.10;3.10;;;;;;;;;;5104722;28;20115;-74
2022/05/14 04:12:52;;;;;;;7.67;2.93;;;;;;;;;;5090461;28;20070;-74
2022/05/14 04:15:19;;;;;;;9.53;3.67;;;;;;;;;;5090305;28;20020;-74
2022/05/14 04:17:45;;;;;;;10.70;4.00;;;;;;;;;;5090229;28;20483;-74
2022/05/14 04:20:12;;;;;;;7.53;3.60;;;;;;;;;;5095632;28;20165;-73
2022/05/14 04:22:39;;;;;;;6.63;4.00;;;;;;;;;;5115838;28;20020;-73
2022/05/14 04:25:06;;;;;;;7.67;3.37;;;;;;;;;;5115708;28;20027;-74
2022/05/14 04:27:33;;;;;;;10.50;3.43;;;;;;;;;;5115809;28;20020;-74
2022/05/14 04:30:00;;;;;;;5.73;3.60;;;;;;;;;;5104119;28;20488;-74
2022/05/14 04:32:27;;;;;;;6.83;3.03;;;;;;;;;;5089772;28;20036;-73
2022/05/14 04:34:53;;;;;;;6.93;3.10;;;;;;;;;;5090099;28;20039;-73
2022/05/14 04:37:20;;;;;;;10.67;3.33;;;;;;;;;;5090014;28;20032;-74
2022/05/14 04:39:47;;;;;;;8.40;4.57;;;;;;;;;;5098435;28;20038;-74
2022/05/14 04:42:13;;;;;;;15.43;3.80;;;;;;;;;;5114575;28;20438;-74
2022/05/14 04:44:40;;;;;;;11.23;3.47;;;;;;;;;;5115470;28;20028;-74
2022/05/14 04:47:07;;;;;;;9.37;3.90;;;;;;;;;;5115559;28;20073;-74
2022/05/14 04:49:38;;;;;;;11.30;3.53;;;;;;;;;;5108450;28;20055;-73
2022/05/14 04:52:05;;;;;;;7.90;3.83;;;;;;;;;;5095038;28;20027;-73
2022/05/14 04:54:32;;;;;;;9.83;3.30;;;;;;;;;;5090009;28;20036;-74
2022/05/14 04:56:58;;;;;;;7.80;3.30;;;;;;;;;;5089455;28;20020;-74
2022/05/14 04:59:25;;;;;;;9.30;3.20;;;;;;;;;;5094134;28;20051;-73
2022/05/14 05:04:40;;;;;;;8.20;3.23;;;;;;;;;;5114977;28;20038;-74
2022/05/14 05:07:07;;;;;;;6.73;3.47;;;;;;;;;;5114876;28;20027;-73
2022/05/14 05:09:34;;;;;;;6.20;3.43;;;;;;;;;;5108495;28;20085;-73
2022/05/14 05:12:00;;;;;;;7.07;3.57;;;;;;;;;;5094457;28;20084;-73
2022/05/14 05:14:27;;;;;;;6.67;3.27;;;;;;;;;;5094589;28;20031;-73
2022/05/14 05:16:54;;;;;;;6.60;3.70;;;;;;;;;;5097619;28;20084;-73
2022/05/14 05:19:21;;;;;;;5.90;3.30;;;;;;;;;;5109520;28;20023;-73
2022/05/14 05:21:48;;;;;;;11.67;3.20;;;;;;;;;;5109118;28;20530;-73
2022/05/14 05:24:15;;;;;;;5.93;3.33;;;;;;;;;;5109163;28;20032;-73
2022/05/14 05:26:41;;;;;;;6.93;3.30;;;;;;;;;;5107173;28;20076;-74
2022/05/14 05:29:09;;;;;;;11.67;4.33;;;;;;;;;;5094309;28;20051;-73
2022/05/14 05:31:36;;;;;;;9.37;3.37;;;;;;;;;;5099889;28;20492;-73
2022/05/14 05:34:03;;;;;;;6.60;3.47;;;;;;;;;;5114341;28;20024;-73
2022/05/14 05:36:30;;;;;;;9.50;3.57;;;;;;;;;;5114509;28;20521;-73
2022/05/14 05:38:56;;;;;;;9.40;3.93;;;;;;;;;;5109957;28;20015;-73
2022/05/14 05:41:23;;;;;;;4.80;3.20;;;;;;;;;;5108082;28;20027;-73
2022/05/14 05:43:50;;;;;;;7.30;3.00;;;;;;;;;;5107979;28;20501;-73
2022/05/14 05:46:17;;;;;;;5.00;2.83;;;;;;;;;;5106847;28;20015;-73
2022/05/14 05:48:44;;;;;;;5.80;2.90;;;;;;;;;;5112266;28;20034;-73
2022/05/14 05:51:11;;;;;;;10.37;3.33;;;;;;;;;;5114213;28;20112;-73
2022/05/14 05:59:08;;;;;;;5.68;2.40;;;;;;;;;;5093619;28;20117;-73
2022/05/14 06:01:35;;;;;;;4.23;2.00;;;;;;;;;;5088548;28;20028;-73
2022/05/14 06:04:02;;;;;;;7.67;3.33;;;;;;;;;;5088357;28;20020;-72
2022/05/14 06:06:28;;;;;;;5.00;2.27;;;;;;;;;;5105867;28;20031;-73
2022/05/14 06:08:55;;;;;;;5.77;2.00;;;;;;;;;;5108499;28;20032;-73
2022/05/14 06:11:22;;;;;;;4.33;1.93;;;;;;;;;;5112813;28;20030;-72
2022/05/14 06:13:48;;;;;;;5.47;2.33;;;;;;;;;;5095200;28;20093;-73
2022/05/14 06:16:15;;;;;;;5.53;2.30;;;;;;;;;;5093220;28;20032;-73
2022/05/14 06:18:42;;;;;;;4.43;1.90;;;;;;;;;;5093338;28;20024;-73
2022/05/14 06:21:09;;;;;;;3.67;2.10;;;;;;;;;;5093323;28;20024;-73
2022/05/14 06:23:36;;;;;;;5.00;2.40;;;;;;;;;;5103931;28;20028;-72
2022/05/14 06:26:03;;;;;;;5.23;2.07;;;;;;;;;;5108101;28;20100;-73
2022/05/14 06:28:30;;;;;;;3.37;2.00;;;;;;;;;;5108109;28;20022;-72
2022/05/14 06:30:57;;;;;;;5.00;2.30;;;;;;;;;;5108057;28;20529;-73
2022/05/14 06:33:26;;;;;;;5.17;2.87;;;;;;;;;;5110706;28;20038;-72
2022/05/14 06:35:53;;;;;;;5.57;2.10;;;;;;;;;;5093338;28;20489;-73
2022/05/14 06:38:19;;;;;;;9.67;3.87;;;;;;;;;;5092886;28;20027;-73
2022/05/14 06:40:47;;;;;;;6.60;4.07;;;;;;;;;;5093090;28;20024;-73
2022/05/14 06:43:17;;;;;;;6.83;2.70;;;;;;;;;;5105457;28;20039;-73
2022/05/14 06:45:44;;;;;;;7.63;4.37;;;;;;;;;;5109101;28;20478;-72
2022/05/14 06:48:10;;;;;;;6.20;3.47;;;;;;;;;;5107878;28;20027;-73
2022/05/14 06:50:45;;;;;;;11.93;7.03;;;;;;;;;;5107570;28;20108;-73
2022/05/14 06:53:12;;;;;;;6.45;3.90;;;;;;;;;;5095462;28;20024;-73
2022/05/14 06:55:41;;;;;;;6.77;3.37;;;;;;;;;;5090875;28;20145;-73
2022/05/14 06:58:09;;;;;;;5.87;2.63;;;;;;;;;;5092165;28;20016;-73
2022/05/14 07:00:36;;;;;;;5.00;3.03;;;;;;;;;;5092622;28;20568;-72
2022/05/14 07:08:33;;;;;;;;;;;;;;;;;;5108077;28;20047;-72
2022/05/14 07:10:59;;;;;;;5.03;2.37;;;;;;;;;;5107603;28;19913;-72
2022/05/14 07:13:26;;;;;;;4.07;2.30;;;;;;;;;;5107374;28;20038;-72
2022/05/14 07:15:53;;;;;;;3.90;2.03;;;;;;;;;;5105191;28;20470;-72
2022/05/14 07:18:19;;;;;;;8.00;3.10;;;;;;;;;;5091590;28;20391;-73
2022/05/14 07:20:46;;;;;;;9.57;3.20;;;;;;;;;;5092331;28;20378;-72
2022/05/14 07:23:13;;;;;;;5.87;3.10;;;;;;;;;;5099954;28;20023;-73
2022/05/14 07:25:39;;;;;;;10.40;4.17;;;;;;;;;;5112719;28;20023;-73
2022/05/14 07:28:08;;;;;;;5.87;3.30;;;;;;;;;;5111050;28;20118;-72
2022/05/14 07:30:35;;;;;;;5.73;3.43;;;;;;;;;;5087713;28;20423;-72
2022/05/14 07:33:02;;;;;;;13.87;6.80;;;;;;;;;;5086856;28;20592;-72
2022/05/14 07:35:30;;;;;;;16.13;8.00;;;;;;;;;;5086895;28;20093;-73
2022/05/14 07:37:57;;;;;;;12.60;6.67;;;;;;;;;;5106280;28;20081;-72
2022/05/14 07:40:27;;;;;;;8.73;5.63;;;;;;;;;;5110698;28;20024;-72
2022/05/14 07:43:00;;;;;;;11.07;5.23;;;;;;;;;;5112692;28;20043;-73
2022/05/14 07:45:34;;;;;;;12.73;8.07;;;;;;;;;;5114732;28;20034;-72
2022/05/14 07:48:03;;;;;;;12.83;5.93;;;;;;;;;;5096582;28;20031;-73
2022/05/14 07:50:30;;;;;;;10.37;4.73;;;;;;;;;;5096168;28;20024;-72
2022/05/14 07:52:57;;;;;;;9.07;5.00;;;;;;;;;;5090965;28;20501;-73
2022/05/14 07:55:24;;;;;;;7.83;4.33;;;;;;;;;;5102379;28;20051;-73
2022/05/14 07:57:50;;;;;;;12.97;5.10;;;;;;;;;;5110856;28;20377;-72
2022/05/14 08:00:18;;;;;;;8.73;3.47;;;;;;;;;;5110991;28;20027;-72
2022/05/14 08:02:45;;;;;;;6.00;3.30;;;;;;;;;;5114946;28;20052;-73
2022/05/14 08:05:14;;;;;;;7.77;3.80;;;;;;;;;;5106020;28;20028;-72
2022/05/14 08:07:41;;;;;;;5.10;3.03;;;;;;;;;;5095669;28;20108;-72
2022/05/14 08:10:08;;;;;;;11.53;5.70;;;;;;;;;;5095841;28;20471;-72
2022/05/14 08:12:38;;;;;;;10.37;4.90;;;;;;;;;;5095830;28;20480;-72
2022/05/14 08:15:05;;;;;;;9.57;4.90;;;;;;;;;;5091126;28;20052;-73
2022/05/14 08:17:32;;;;;;;12.37;5.80;;;;;;;;;;5100326;28;20038;-72
2022/05/14 08:19:58;;;;;;;9.83;4.80;;;;;;;;;;5110854;28;20046;-73
2022/05/14 08:25:10;;;;;;;7.38;4.57;;;;;;;;;;5114924;28;20140;-72
2022/05/14 08:27:44;;;;;;;7.10;4.37;;;;;;;;;;5116073;28;20466;-72
2022/05/14 08:30:21;;;;;;;9.77;6.30;;;;;;;;;;5100079;28;20131;-72
2022/05/14 08:32:48;;;;;;;9.27;5.53;;;;;;;;;;5094885;28;20028;-72
2022/05/14 08:35:15;;;;;;;8.10;4.47;;;;;;;;;;5095394;28;20028;-72
2022/05/14 08:37:42;;;;;;;12.83;5.30;;;;;;;;;;5090273;28;20031;-72
2022/05/14 08:40:22;;;;;;;5.63;3.90;;;;;;;;;;5089786;28;20024;-73
2022/05/14 08:42:51;;;;;;;7.53;4.17;;;;;;;;;;5089868;28;20039;-72
2022/05/14 08:45:20;;;;;;;8.67;5.07;;;;;;;;;;5089676;28;20032;-72
2022/05/14 08:47:55;;;;;;;11.00;6.07;;;;;;;;;;5095565;28;20035;-73
2022/05/14 08:50:25;;;;;;;12.88;5.43;;;;;;;;;;5115257;28;20028;-72
2022/05/14 08:52:54;;;;;;;9.23;5.10;;;;;;;;;;5115370;28;20027;-72
2022/05/14 08:55:21;;;;;;;9.83;5.97;;;;;;;;;;5113567;28;20100;-72
2022/05/14 08:57:48;;;;;;;7.27;4.53;;;;;;;;;;5114045;28;20035;-73
2022/05/14 09:00:15;;;;;;;10.10;5.33;;;;;;;;;;5109606;28;20020;-72
2022/05/14 09:02:44;;;;;;;7.77;5.30;;;;;;;;;;5109968;28;20020;-72
2022/05/14 09:05:11;;;;;;;7.23;4.60;;;;;;;;;;5107889;28;20020;-72
2022/05/14 09:07:38;;;;;;;8.27;4.43;;;;;;;;;;5089159;28;20074;-72
2022/05/14 09:10:06;;;;;;;10.70;5.43;;;;;;;;;;5094523;28;20017;-72
2022/05/14 09:12:34;;;;;;;8.60;5.27;;;;;;;;;;5094687;28;20043;-72
2022/05/14 09:15:03;;;;;;;11.63;5.10;;;;;;;;;;5094318;28;20020;-72
2022/05/14 09:17:31;;;;;;;7.43;4.57;;;;;;;;;;5097704;28;20026;-72
2022/05/14 09:19:59;;;;;;;8.33;4.77;;;;;;;;;;5114759;28;20019;-72
2022/05/14 09:22:44;;;;;;;7.17;4.77;;;;;;;;;;5091133;28;20436;-72
2022/05/14 09:25:14;;;;;;;6.97;4.47;;;;;;;;;;5109432;28;20092;-72
2022/05/14 09:27:48;;;;;;;7.17;4.63;;;;;;;;;;5109268;28;20443;-73
2022/05/14 09:30:24;;;;;;;9.32;5.55;;;;;;;;;;5099329;28;20425;-73
2022/05/14 09:32:50;;;;;;;7.50;4.27;;;;;;;;;;5094247;28;20114;-72
2022/05/14 09:35:19;;;;;;;8.17;4.70;;;;;;;;;;5094237;28;20020;-73
2022/05/14 09:37:46;;;;;;;6.70;3.53;;;;;;;;;;5093949;28;20028;-72
2022/05/14 09:40:29;;;;;;;8.23;4.87;;;;;;;;;;5093984;28;20028;-72
2022/05/14 09:43:16;;;;;;;8.30;4.93;;;;;;;;;;5106413;28;20015;-72
2022/05/14 09:46:07;;;;;;;8.20;5.07;;;;;;;;;;5092137;28;20040;-72
2022/05/14 09:48:36;;;;;;;8.67;4.30;;;;;;;;;;5082061;28;20426;-72
2022/05/14 09:51:08;;;;;;;10.73;5.20;;;;;;;;;;5109002;28;20024;-72
2022/05/14 09:53:36;;;;;;;9.07;5.30;;;;;;;;;;5106984;28;20115;-72
2022/05/14 09:56:03;;;;;;;8.37;4.53;;;;;;;;;;5093296;28;20095;-72
2022/05/14 09:58:42;;;;;;;8.63;4.37;;;;;;;;;;5093713;28;20078;-72
2022/05/14 10:01:10;;;;;;;9.60;5.17;;;;;;;;;;5093823;28;20027;-72
2022/05/14 10:03:41;;;;;;;8.40;4.80;;;;;;;;;;5093830;28;20020;-72
2022/05/14 10:06:15;;;;;;;9.13;4.93;;;;;;;;;;5097109;28;20080;-72
2022/05/14 10:08:51;;;;;;;10.63;4.70;;;;;;;;;;5108682;28;20315;-72
2022/05/14 10:11:21;;;;;;;8.00;4.60;;;;;;;;;;5108517;28;20109;-72
2022/05/14 10:14:06;;;;;;;9.27;4.93;;;;;;;;;;5108392;28;20019;-72
2022/05/14 10:16:32;;;;;;;10.55;3.45;;;;;;;;;;5112298;28;20072;-72
2022/05/14 10:19:06;;;;;;;9.13;4.60;;;;;;;;;;5098774;28;20032;-72
2022/05/14 10:21:33;;;;;;;7.83;3.93;;;;;;;;;;5093346;28;20024;-72
2022/05/14 10:26:59;;;;;;;11.27;4.33;;;;;;;;;;5092663;28;20047;-72
2022/05/14 10:29:30;;;;;;;12.87;5.43;;;;;;;;;;5087781;28;20295;-72
2022/05/14 10:31:59;;;;;;;11.60;5.73;;;;;;;;;;5087633;28;20252;-72
2022/05/14 10:34:42;;;;;;;10.33;4.87;;;;;;;;;;5087748;28;20042;-72
2022/05/14 10:37:16;;;;;;;9.57;5.40;;;;;;;;;;5087951;28;20261;-72
2022/05/14 10:39:45;;;;;;;8.20;4.47;;;;;;;;;;5093103;28;20253;-72
2022/05/14 10:42:17;;;;;;;12.83;5.17;;;;;;;;;;5100774;28;20252;-72
2022/05/14 10:44:48;;;;;;;7.67;4.80;;;;;;;;;;5113311;28;20680;-72
2022/05/14 10:47:16;;;;;;;10.50;5.43;;;;;;;;;;5112701;28;20275;-72
2022/05/14 10:49:53;;;;;;;9.57;4.90;;;;;;;;;;5111310;28;20024;-72
2022/05/14 10:52:20;;;;;;;7.50;4.57;;;;;;;;;;5107693;28;20035;-72
2022/05/14 10:54:46;;;;;;;9.43;4.73;;;;;;;;;;5093700;28;20269;-72
2022/05/14 10:57:16;;;;;;;8.57;4.67;;;;;;;;;;5087554;28;20290;-72
2022/05/14 10:59:45;;;;;;;8.50;4.53;;;;;;;;;;5088700;28;20751;-72
2022/05/14 11:02:12;;;;;;;8.17;4.17;;;;;;;;;;5092641;28;20746;-72
2022/05/14 11:04:45;;;;;;;9.63;4.53;;;;;;;;;;5092686;28;20803;-72
2022/05/14 11:07:32;;;;;;;11.20;5.40;;;;;;;;;;5092878;28;20754;-72
2022/05/14 11:10:22;;;;;;;13.60;5.07;;;;;;;;;;5092654;28;20253;-72
2022/05/14 11:12:50;;;;;;;10.57;6.10;;;;;;;;;;5076841;28;20291;-72
2022/05/14 11:15:25;;;;;;;8.17;5.23;;;;;;;;;;5087089;28;20762;-72
2022/05/14 11:18:02;;;;;;;9.23;5.22;;;;;;;;;;5087140;28;20265;-72
2022/05/14 11:20:29;;;;;;;9.30;5.17;;;;;;;;;;5086751;28;20466;-72
2022/05/14 11:23:05;;;;;;;12.40;6.23;;;;;;;;;;5090173;28;20249;-72
2022/05/14 11:25:31;;;;;;;10.60;5.47;;;;;;;;;;5092292;28;20336;-72
2022/05/14 11:28:14;;;;;;;8.10;4.93;;;;;;;;;;5092477;28;20857;-72
2022/05/14 11:30:43;;;;;;;13.07;4.90;;;;;;;;;;5092245;28;20248;-72
2022/05/14 11:33:31;;;;;;;9.50;5.30;;;;;;;;;;5092221;28;20292;-72
2022/05/14 11:35:59;;;;;;;12.47;5.70;;;;;;;;;;5086922;28;20261;-72
2022/05/14 11:38:28;;;;;;;10.27;5.00;;;;;;;;;;5086951;28;20260;-72
2022/05/14 11:41:00;;;;;;;8.57;4.40;;;;;;;;;;5096438;28;20264;-72
2022/05/14 11:43:27;;;;;;;11.43;5.33;;;;;;;;;;5107113;28;20312;-72
2022/05/14 11:45:58;;;;;;;8.13;5.30;;;;;;;;;;5111972;28;20256;-72
2022/05/14 11:48:32;;;;;;;9.40;5.90;;;;;;;;;;5112619;28;20739;-72
2022/05/14 11:50:59;;;;;;;8.60;4.63;;;;;;;;;;5112662;28;20253;-71
2022/05/14 11:53:35;;;;;;;9.63;5.87;;;;;;;;;;5094982;28;20089;-72
2022/05/14 11:56:07;;;;;;;12.37;4.93;;;;;;;;;;5091598;28;20264;-72
2022/05/14 11:58:52;;;;;;;8.50;5.30;;;;;;;;;;5086507;28;20264;-72
2022/05/14 12:01:26;;;;;;;20.58;8.25;;;;;;;;;;5098639;28;20317;-72
2022/05/14 12:03:54;;;;;;;9.80;5.47;;;;;;;;;;5107213;28;20062;-72
2022/05/14 12:06:49;;;;;;;10.27;5.80;;;;;;;;;;5107920;28;20020;-72
2022/05/14 12:09:24;;;;;;;11.47;5.33;;;;;;;;;;5112224;28;20321;-72
2022/05/14 12:12:14;;;;;;;12.40;5.63;;;;;;;;;;5095035;28;20268;-72
2022/05/14 12:14:40;;;;;;;9.27;6.30;;;;;;;;;;5078867;28;20101;-72
2022/05/14 12:17:09;;;;;;;9.07;6.30;;;;;;;;;;5091910;28;20315;-72
2022/05/14 12:19:39;;;;;;;10.70;6.17;;;;;;;;;;5087983;28;20260;-72
2022/05/14 12:22:07;;;;;;;10.97;6.10;;;;;;;;;;5087169;28;20289;-72
2022/05/14 12:24:40;;;;;;;10.80;5.57;;;;;;;;;;5106746;28;20263;-72
2022/05/14 12:27:17;;;;;;;9.73;5.93;;;;;;;;;;5107110;28;20299;-72
2022/05/14 12:30:04;;;;;;;11.17;5.83;;;;;;;;;;5110281;28;20275;-72
2022/05/14 12:35:17;;;;;;;17.67;6.70;;;;;;;;;;5095861;28;20307;-71
2022/05/14 12:37:44;;;;;;;14.33;7.77;;;;;;;;;;5095438;28;20318;-72
2022/05/14 12:40:19;;;;;;;11.67;6.50;;;;;;;;;;5095509;28;20332;-72
2022/05/14 12:42:46;;;;;;;8.88;5.70;;;;;;;;;;5110485;28;20291;-72
2022/05/14 12:45:15;;;;;;;9.83;5.77;;;;;;;;;;5110387;28;20144;-72
2022/05/14 12:47:42;;;;;;;14.70;7.10;;;;;;;;;;5110187;28;20746;-72
2022/05/14 12:50:20;;;;;;;16.50;7.07;;;;;;;;;;5109949;28;20292;-72
2022/05/14 12:52:56;;;;;;;12.70;6.87;;;;;;;;;;5113490;28;20308;-72
2022/05/14 12:55:24;;;;;;;17.63;8.57;;;;;;;;;;5113422;28;20337;-72
2022/05/14 12:57:51;;;;;;;28.27;9.97;;;;;;;;;;5094863;28;20256;-72
2022/05/14 13:00:18;;;;;;;17.77;7.30;;;;;;;;;;5094928;28;20333;-72
2022/05/14 13:02:51;;;;;;;14.60;7.10;;;;;;;;;;5094502;28;20256;-72
2022/05/14 13:05:37;;;;;;;16.27;7.60;;;;;;;;;;5096934;28;20291;-72
2022/05/14 13:08:07;;;;;;;21.27;8.20;;;;;;;;;;5109876;28;20028;-72
2022/05/14 13:10:34;;;;;;;18.47;7.17;;;;;;;;;;5109797;28;20256;-72
2022/05/14 13:13:02;;;;;;;12.40;6.47;;;;;;;;;;5109920;28;20345;-72
2022/05/14 13:15:36;;;;;;;19.73;7.73;;;;;;;;;;5114681;28;20028;-72
2022/05/14 13:18:15;;;;;;;22.80;7.27;;;;;;;;;;5100428;28;20032;-71
2022/05/14 13:20:42;;;;;;;14.23;6.53;;;;;;;;;;5094541;28;20028;-72
2022/05/14 13:23:28;;;;;;;11.30;6.03;;;;;;;;;;5094431;28;20024;-72
2022/05/14 13:25:58;;;;;;;16.90;7.10;;;;;;;;;;5091908;28;20055;-72
2022/05/14 13:28:26;;;;;;;13.83;6.20;;;;;;;;;;5088916;28;20020;-73
2022/05/14 13:30:53;;;;;;;18.83;7.13;;;;;;;;;;5089143;28;20111;-72
2022/05/14 13:33:33;;;;;;;10.83;7.07;;;;;;;;;;5088863;28;20518;-72
2022/05/14 13:38:53;;;;;;;15.43;8.30;;;;;;;;;;5094482;28;20035;-72
2022/05/14 13:41:25;;;;;;;24.77;10.37;;;;;;;;;;5097811;28;20540;-72
2022/05/14 13:43:55;;;;;;;18.70;9.23;;;;;;;;;;5093339;28;20382;-72
2022/05/14 13:46:31;;;;;;;20.93;10.23;;;;;;;;;;5093929;28;20452;-72
2022/05/14 13:48:58;;;;;;;23.23;9.23;;;;;;;;;;5089607;28;20024;-72
2022/05/14 13:51:36;;;;;;;23.13;11.80;;;;;;;;;;5092732;28;20027;-72
2022/05/14 13:54:14;;;;;;;23.17;9.53;;;;;;;;;;5107691;28;20046;-72
2022/05/14 13:56:42;;;;;;;14.67;9.77;;;;;;;;;;5108790;28;20027;-72
2022/05/14 13:59:30;;;;;;;19.80;9.57;;;;;;;;;;5113293;28;20069;-73
2022/05/14 14:02:15;;;;;;;20.40;7.67;;;;;;;;;;5114194;28;20047;-72
2022/05/14 14:04:42;;;;;;;11.57;8.30;;;;;;;;;;5099451;28;20040;-73
2022/05/14 14:07:10;;;;;;;15.17;7.17;;;;;;;;;;5093682;28;20073;-72
2022/05/14 14:09:38;;;;;;;12.50;7.03;;;;;;;;;;5092908;28;20052;-73
2022/05/14 14:12:05;;;;;;;15.43;7.90;;;;;;;;;;5087982;28;20016;-73
2022/05/14 14:14:32;;;;;;;15.10;7.63;;;;;;;;;;5087590;28;20023;-73
2022/05/14 14:16:58;;;;;;;11.80;6.80;;;;;;;;;;5104624;28;20043;-73
2022/05/14 14:19:25;;;;;;;11.37;6.53;;;;;;;;;;5108166;28;20102;-73
2022/05/14 14:21:53;;;;;;;9.00;6.50;;;;;;;;;;5113739;28;20020;-72
2022/05/14 14:24:21;;;;;;;11.60;7.03;;;;;;;;;;5113752;28;20015;-73
2022/05/14 14:26:49;;;;;;;11.67;5.47;;;;;;;;;;5113579;28;20012;-73
2022/05/14 14:29:15;;;;;;;10.80;6.93;;;;;;;;;;5112618;28;20136;-73
2022/05/14 14:31:42;;;;;;;9.13;6.63;;;;;;;;;;5112870;28;20020;-73
2022/05/14 14:34:09;;;;;;;8.93;5.60;;;;;;;;;;5108074;28;20035;-73
2022/05/14 14:36:35;;;;;;;15.47;7.20;;;;;;;;;;5108185;28;20036;-73
2022/05/14 14:39:04;;;;;;;12.27;7.10;;;;;;;;;;5104701;28;20497;-73
2022/05/14 14:41:31;;;;;;;15.43;6.13;;;;;;;;;;5087648;28;20099;-73
2022/05/14 14:43:57;;;;;;;11.00;6.70;;;;;;;;;;5093136;28;20031;-73
2022/05/14 14:46:24;;;;;;;12.40;6.53;;;;;;;;;;5092394;28;20024;-73
2022/05/14 14:48:53;;;;;;;11.63;5.87;;;;;;;;;;5092549;28;20067;-73
2022/05/14 14:51:24;;;;;;;14.30;6.50;;;;;;;;;;5100754;28;20370;-74
2022/05/14 14:53:51;;;;;;;9.40;6.20;;;;;;;;;;5112527;28;20042;-73
2022/05/14 14:56:17;;;;;;;12.13;6.33;;;;;;;;;;5107009;28;20031;-73
2022/05/14 14:58:45;;;;;;;8.50;5.53;;;;;;;;;;5107668;28;20028;-74
2022/05/14 15:01:14;;;;;;;8.80;5.77;;;;;;;;;;5107266;28;20019;-73
2022/05/14 15:03:48;;;;;;;11.60;5.40;;;;;;;;;;5104184;28;20055;-74
2022/05/14 15:06:15;;;;;;;11.05;6.13;;;;;;;;;;5112929;28;20047;-73
2022/05/14 15:08:43;;;;;;;8.03;5.57;;;;;;;;;;5112932;28;20027;-73
2022/05/14 15:11:12;;;;;;;9.80;6.03;;;;;;;;;;5112734;28;20024;-73
2022/05/14 15:13:40;;;;;;;11.33;6.63;;;;;;;;;;5106286;28;20090;-73
2022/05/14 15:16:11;;;;;;;11.97;6.73;;;;;;;;;;5092374;28;20020;-74
2022/05/14 15:18:42;;;;;;;13.87;6.83;;;;;;;;;;5086788;28;20104;-73
2022/05/14 15:21:10;;;;;;;9.70;5.90;;;;;;;;;;5087190;28;20028;-74